Huvudsida
METAR-TAF:

METAR-TAF

Flygplatser :

Ardabil Airport

Ardabil, Iran

latitud: 38-19-35N, longitud: 048-25-28E, höjd: 1315 m

Aktuellt väderrapport

Denna rapport gjordes för 1 timme och 9 minuter sedan, klockan 04:00 UTC
Stilla vind
Temperatur 0°C
Fuktighet 100%
Tryck 1022 hPa
Sikt: 1500 m
Få moln på en höjd av 500 ft
Brutna moln på en höjd av 2800 ft
Brutna moln på en höjd av 9000 ft
fuktdis

METAR: OITL 200400Z 00000KT 1500 BR FEW005 BKN028 BKN090 00/M00 Q1022

Tid: 08:39 (05:09 UTC)


TAF: saknas

Aktuella väderrapporter och prognoser från 4000 flygplatser (METAR- och TAF-rapporter).

De tillgängliga stationerna syns som gula och röda prickar på kartan.

För musen över prickarna för att se namnen på stationerna.

Klicka sedan för att få väderrapporter och prognoser.

För att ändra kartan: Klicka på de gröna knapparna med ett svart kors på för att zooma in; den gröna knappen med ett streck på för att zooma ut; eller på de gröna pilarna för angränsande kartor.


METAR-TAF: